createdAt,value
2023-03-17T00:01:55.013Z,6.76
2023-03-17T00:04:25.268Z,6.44
2023-03-17T00:06:54.021Z,6.53
2023-03-17T00:09:23.191Z,7.00
2023-03-17T00:11:51.783Z,7.01
2023-03-17T00:14:20.888Z,7.16
2023-03-17T00:16:51.115Z,6.74
2023-03-17T00:19:26.693Z,6.82
2023-03-17T00:21:55.083Z,7.64
2023-03-17T00:24:23.467Z,7.11
2023-03-17T00:26:51.746Z,7.56
2023-03-17T00:29:20.160Z,8.01
2023-03-17T00:31:49.505Z,8.14
2023-03-17T00:34:21.558Z,8.40
2023-03-17T00:36:52.045Z,7.77
2023-03-17T00:39:20.911Z,8.08
2023-03-17T00:41:49.247Z,7.98
2023-03-17T00:44:17.573Z,8.14
2023-03-17T00:46:46.658Z,8.24
2023-03-17T00:51:46.796Z,8.43
2023-03-17T00:54:15.725Z,8.53
2023-03-17T00:56:45.491Z,8.34
2023-03-17T00:59:21.894Z,7.77
2023-03-17T01:01:50.328Z,7.97
2023-03-17T01:04:19.699Z,7.63
2023-03-17T01:06:50.756Z,7.72
2023-03-17T01:09:20.495Z,7.47
2023-03-17T01:11:49.357Z,7.49
2023-03-17T01:14:18.197Z,6.77
2023-03-17T01:16:47.878Z,7.03
2023-03-17T01:19:17.197Z,7.37
2023-03-17T01:21:45.782Z,7.57
2023-03-17T01:24:15.788Z,7.18
2023-03-17T01:26:44.738Z,7.35
2023-03-17T01:29:14.032Z,6.96
2023-03-17T01:31:42.421Z,7.59
2023-03-17T01:34:11.712Z,7.28
2023-03-17T01:36:41.416Z,7.46
2023-03-17T01:39:09.639Z,7.53
2023-03-17T01:41:40.344Z,7.27
2023-03-17T01:44:10.937Z,7.24
2023-03-17T01:46:39.216Z,6.88
2023-03-17T01:49:13.480Z,6.85
2023-03-17T01:51:50.436Z,6.98
2023-03-17T01:54:24.353Z,6.84
2023-03-17T01:56:57.580Z,7.38
2023-03-17T01:59:30.053Z,7.47
2023-03-17T02:02:04.683Z,7.34
2023-03-17T02:04:34.209Z,7.45
2023-03-17T02:07:05.261Z,7.24
2023-03-17T02:09:35.015Z,7.30
2023-03-17T02:12:05.916Z,7.27
2023-03-17T02:14:34.288Z,7.42
2023-03-17T02:17:02.845Z,7.20
2023-03-17T02:19:31.276Z,7.38
2023-03-17T02:22:02.769Z,7.26
2023-03-17T02:24:35.979Z,7.37
2023-03-17T02:27:09.793Z,7.22
2023-03-17T02:29:38.140Z,6.93
2023-03-17T02:32:07.719Z,7.25
2023-03-17T02:34:36.115Z,7.09
2023-03-17T02:37:06.402Z,6.36
2023-03-17T02:39:34.840Z,7.10
2023-03-17T02:42:03.802Z,7.17
2023-03-17T02:44:32.224Z,6.74
2023-03-17T02:47:01.126Z,6.90
2023-03-17T02:49:30.756Z,6.68
2023-03-17T02:51:59.186Z,6.70
2023-03-17T02:54:29.041Z,6.92
2023-03-17T02:56:57.372Z,6.87
2023-03-17T02:59:25.925Z,6.93
2023-03-17T03:01:54.254Z,6.61
2023-03-17T03:04:22.516Z,7.12
2023-03-17T03:06:51.254Z,6.91
2023-03-17T03:09:19.567Z,7.26
2023-03-17T03:11:49.550Z,6.96
2023-03-17T03:14:17.784Z,6.84
2023-03-17T03:16:47.032Z,7.44
2023-03-17T03:19:15.247Z,7.23
2023-03-17T03:21:43.857Z,6.72
2023-03-17T03:24:12.206Z,7.13
2023-03-17T03:26:40.507Z,6.83
2023-03-17T03:29:10.563Z,6.72
2023-03-17T03:31:38.858Z,6.78
2023-03-17T03:34:07.398Z,6.68
2023-03-17T03:36:35.739Z,6.72
2023-03-17T03:39:04.040Z,6.67
2023-03-17T03:41:32.381Z,6.63
2023-03-17T03:44:00.638Z,6.67
2023-03-17T03:46:30.324Z,6.68
2023-03-17T03:48:58.641Z,7.14
2023-03-17T03:51:27.205Z,7.26
2023-03-17T03:53:55.527Z,7.13
2023-03-17T03:56:23.867Z,7.13
2023-03-17T03:58:52.563Z,7.54
2023-03-17T04:01:24.725Z,7.10
2023-03-17T04:03:54.442Z,6.71
2023-03-17T04:06:22.688Z,6.76
2023-03-17T04:08:50.993Z,7.21
2023-03-17T04:11:19.390Z,6.87
2023-03-17T04:13:47.779Z,6.46
2023-03-17T04:16:16.393Z,6.75
2023-03-17T04:18:44.827Z,6.80
2023-03-17T04:21:18.539Z,6.66
2023-03-17T04:23:47.432Z,6.67
2023-03-17T04:26:17.504Z,6.54
2023-03-17T04:28:46.139Z,6.37
2023-03-17T04:31:14.589Z,6.65
2023-03-17T04:33:43.302Z,6.84
2023-03-17T04:36:19.473Z,6.51
2023-03-17T04:38:47.835Z,6.81
2023-03-17T04:41:16.171Z,6.19
2023-03-17T04:43:44.483Z,6.11
2023-03-17T04:46:12.865Z,6.35
2023-03-17T04:48:41.543Z,5.97
2023-03-17T04:51:11.633Z,6.20
2023-03-17T04:53:41.594Z,6.45
2023-03-17T04:56:10.268Z,6.33
2023-03-17T04:58:38.761Z,6.26
2023-03-17T05:01:07.457Z,5.23
2023-03-17T05:03:36.576Z,6.24
2023-03-17T05:06:05.762Z,6.10
2023-03-17T05:08:34.156Z,6.54
2023-03-17T05:11:03.849Z,6.87
2023-03-17T05:13:32.391Z,6.95
2023-03-17T05:16:01.604Z,6.64
2023-03-17T05:18:30.262Z,6.86
2023-03-17T05:20:58.608Z,6.89
2023-03-17T05:23:27.796Z,6.97
2023-03-17T05:25:56.223Z,7.02
2023-03-17T05:28:26.846Z,6.99
2023-03-17T05:30:55.603Z,7.18
2023-03-17T05:33:24.431Z,7.34
2023-03-17T05:35:52.889Z,7.28
2023-03-17T05:38:21.294Z,7.15
2023-03-17T05:40:51.885Z,7.37
2023-03-17T05:43:20.469Z,7.32
2023-03-17T05:45:50.794Z,7.63
2023-03-17T05:48:19.912Z,7.81
2023-03-17T05:50:48.343Z,7.75
2023-03-17T05:53:17.567Z,7.47
2023-03-17T05:55:45.955Z,8.03
2023-03-17T05:58:15.852Z,7.84
2023-03-17T06:00:45.387Z,8.00
2023-03-17T06:03:15.419Z,7.96
2023-03-17T06:05:43.768Z,7.78
2023-03-17T06:08:12.299Z,8.13
2023-03-17T06:10:41.461Z,8.32
2023-03-17T06:13:09.813Z,8.53
2023-03-17T06:15:38.206Z,9.11
2023-03-17T06:18:06.771Z,9.16
2023-03-17T06:20:36.808Z,9.61
2023-03-17T06:23:05.812Z,9.90
2023-03-17T06:25:35.189Z,9.86
2023-03-17T06:28:04.204Z,10.04
2023-03-17T06:30:33.088Z,10.26
2023-03-17T06:33:02.197Z,10.03
2023-03-17T06:35:31.826Z,10.54
2023-03-17T06:38:02.460Z,10.36
2023-03-17T06:40:31.207Z,11.24
2023-03-17T06:42:59.810Z,11.11
2023-03-17T06:45:28.400Z,11.29
2023-03-17T06:47:57.187Z,11.12
2023-03-17T06:50:25.868Z,11.22
2023-03-17T06:52:54.450Z,11.65
2023-03-17T06:55:24.186Z,11.69
2023-03-17T06:57:52.628Z,11.99
2023-03-17T07:00:22.639Z,12.21
2023-03-17T07:02:51.367Z,12.53
2023-03-17T07:05:19.631Z,12.79
2023-03-17T07:07:47.937Z,13.07
2023-03-17T07:10:17.449Z,13.31
2023-03-17T07:12:47.200Z,13.05
2023-03-17T07:15:17.462Z,12.13
2023-03-17T07:17:46.904Z,12.58
2023-03-17T07:20:15.267Z,12.35
2023-03-17T07:22:43.683Z,12.31
2023-03-17T07:25:12.037Z,11.76
2023-03-17T07:27:40.481Z,11.75
2023-03-17T07:30:11.753Z,11.42
2023-03-17T07:32:41.854Z,11.54
2023-03-17T07:35:10.857Z,11.50
2023-03-17T07:37:39.285Z,12.01
2023-03-17T07:40:09.318Z,12.05
2023-03-17T07:42:37.758Z,12.14
2023-03-17T07:45:08.110Z,12.33
2023-03-17T07:47:37.819Z,11.41
2023-03-17T07:50:06.873Z,12.16
2023-03-17T07:52:35.667Z,12.69
2023-03-17T07:55:04.132Z,13.31
2023-03-17T07:57:32.802Z,13.86
2023-03-17T08:00:01.406Z,13.24
2023-03-17T08:02:30.025Z,13.44
2023-03-17T08:04:59.746Z,13.94
2023-03-17T08:07:28.083Z,14.56
2023-03-17T08:09:56.510Z,15.59
2023-03-17T08:12:24.809Z,15.83
2023-03-17T08:14:53.192Z,15.68
2023-03-17T08:17:21.595Z,16.02
2023-03-17T08:19:50.707Z,17.13
2023-03-17T08:22:20.588Z,15.87
2023-03-17T08:24:48.998Z,15.58
2023-03-17T08:27:17.454Z,15.68
2023-03-17T08:29:46.078Z,15.90
2023-03-17T08:32:15.148Z,16.74
2023-03-17T08:34:44.529Z,16.62
2023-03-17T08:37:12.949Z,16.63
2023-03-17T08:39:42.635Z,16.34
2023-03-17T08:42:10.996Z,14.18
2023-03-17T08:44:39.312Z,14.73
2023-03-17T08:47:07.798Z,15.36
2023-03-17T08:49:36.711Z,16.24
2023-03-17T08:52:05.099Z,15.82
2023-03-17T08:54:33.461Z,15.38
2023-03-17T08:57:04.191Z,15.83
2023-03-17T08:59:32.951Z,14.49
2023-03-17T09:02:01.227Z,14.74
2023-03-17T09:04:29.581Z,14.94
2023-03-17T09:07:05.774Z,14.04
2023-03-17T09:09:35.770Z,14.07
2023-03-17T09:12:07.098Z,13.99
2023-03-17T09:14:43.512Z,14.16
2023-03-17T09:17:14.068Z,14.50
2023-03-17T09:19:43.577Z,14.86
2023-03-17T09:22:14.842Z,15.54
2023-03-17T09:24:43.429Z,14.40
2023-03-17T09:27:13.734Z,14.44
2023-03-17T09:29:43.390Z,14.74
2023-03-17T09:32:11.699Z,14.58
2023-03-17T09:34:40.034Z,15.41
2023-03-17T09:37:09.929Z,14.30
2023-03-17T09:39:38.287Z,14.50
2023-03-17T09:42:33.479Z,14.18
2023-03-17T09:45:17.876Z,14.38
2023-03-17T09:47:58.509Z,15.97
2023-03-17T09:50:30.468Z,16.08
2023-03-17T09:53:03.723Z,15.81
2023-03-17T09:55:34.077Z,16.04
2023-03-17T09:58:05.007Z,16.71
2023-03-17T10:00:34.805Z,15.70
2023-03-17T10:03:03.624Z,15.82
2023-03-17T10:05:36.206Z,17.31
2023-03-17T10:08:28.875Z,17.07
2023-03-17T10:11:03.466Z,17.40
2023-03-17T10:13:48.606Z,18.51
2023-03-17T10:16:20.890Z,18.99
2023-03-17T10:18:55.622Z,19.38
2023-03-17T10:21:28.250Z,19.62
2023-03-17T10:23:57.666Z,19.17
2023-03-17T10:26:31.431Z,19.18
2023-03-17T10:29:04.238Z,19.03
2023-03-17T10:31:35.702Z,18.64
2023-03-17T10:34:14.728Z,18.96
2023-03-17T10:36:45.982Z,19.30
2023-03-17T10:39:16.362Z,20.10
2023-03-17T10:41:54.144Z,19.91
2023-03-17T10:44:34.902Z,19.55
2023-03-17T10:47:03.831Z,19.76
2023-03-17T10:49:37.200Z,19.68
2023-03-17T10:52:09.250Z,20.40
2023-03-17T10:54:39.395Z,20.49
2023-03-17T10:57:10.790Z,21.14
2023-03-17T10:59:44.901Z,20.47
2023-03-17T11:02:22.144Z,20.14
2023-03-17T11:04:50.573Z,20.25
2023-03-17T11:07:21.437Z,18.74
2023-03-17T11:09:51.751Z,18.69
2023-03-17T11:12:27.170Z,18.46
2023-03-17T11:15:03.500Z,17.93
2023-03-17T11:17:41.564Z,17.35
2023-03-17T11:20:26.546Z,17.21
2023-03-17T11:23:02.329Z,17.05
2023-03-17T11:25:34.555Z,16.71
2023-03-17T11:28:16.980Z,17.19
2023-03-17T11:30:53.847Z,17.10
2023-03-17T11:33:35.513Z,15.89
2023-03-17T11:36:12.115Z,15.11
2023-03-17T11:38:51.024Z,15.39
2023-03-17T11:41:42.579Z,15.88
2023-03-17T11:44:30.528Z,14.91
2023-03-17T11:47:09.224Z,15.36
2023-03-17T11:49:38.981Z,15.34
2023-03-17T11:52:22.146Z,15.26
2023-03-17T11:55:00.199Z,14.99
2023-03-17T11:57:35.087Z,15.08
2023-03-17T12:00:07.257Z,14.99
2023-03-17T12:02:42.855Z,14.44
2023-03-17T12:05:15.498Z,14.33
2023-03-17T12:07:48.248Z,13.86
2023-03-17T12:10:23.827Z,14.56
2023-03-17T12:12:57.330Z,14.22
2023-03-17T12:15:31.662Z,13.88
2023-03-17T12:18:07.056Z,14.41
2023-03-17T12:20:46.879Z,14.41
2023-03-17T12:23:29.452Z,14.98
2023-03-17T12:26:03.964Z,14.49
2023-03-17T12:28:38.081Z,14.74
2023-03-17T12:31:09.175Z,15.59
2023-03-17T12:33:45.198Z,16.31
2023-03-17T12:36:17.235Z,16.08
2023-03-17T12:38:50.082Z,17.50
2023-03-17T12:41:35.193Z,16.29
2023-03-17T12:44:09.260Z,16.08
2023-03-17T12:47:13.904Z,16.87
2023-03-17T12:50:11.143Z,15.75
2023-03-17T12:53:07.420Z,15.16
2023-03-17T12:55:37.158Z,14.95
2023-03-17T12:58:08.239Z,15.67
2023-03-17T13:00:50.836Z,15.19
2023-03-17T13:03:24.741Z,15.77
2023-03-17T13:06:00.151Z,15.62
2023-03-17T13:08:32.135Z,15.13
2023-03-17T13:11:18.678Z,14.74
2023-03-17T13:13:59.229Z,15.55
2023-03-17T13:16:32.319Z,15.04
2023-03-17T13:19:17.696Z,15.29
2023-03-17T13:21:52.415Z,14.38
2023-03-17T13:24:36.109Z,13.52
2023-03-17T13:27:05.676Z,14.18
2023-03-17T13:29:48.790Z,14.12
2023-03-17T13:32:35.666Z,14.21
2023-03-17T13:35:41.153Z,13.98
2023-03-17T13:38:28.081Z,13.48
2023-03-17T13:41:16.948Z,13.28
2023-03-17T13:43:57.005Z,13.57
2023-03-17T13:46:35.219Z,12.48
2023-03-17T13:49:16.745Z,12.97
2023-03-17T13:51:59.092Z,12.63
2023-03-17T13:54:35.535Z,11.79
2023-03-17T13:57:24.340Z,12.66
2023-03-17T14:00:14.952Z,12.55
2023-03-17T14:02:49.046Z,13.21
2023-03-17T14:05:25.713Z,12.84
2023-03-17T14:07:58.358Z,12.62
2023-03-17T14:10:31.091Z,13.50
2023-03-17T14:13:04.541Z,13.49
2023-03-17T14:15:42.180Z,13.32
2023-03-17T14:18:16.791Z,13.03
2023-03-17T14:20:54.539Z,12.35
2023-03-17T14:23:24.068Z,12.73
2023-03-17T14:25:57.114Z,12.37
2023-03-17T14:28:29.034Z,12.74
2023-03-17T14:31:00.649Z,12.57
2023-03-17T14:33:31.081Z,12.02
2023-03-17T14:36:01.290Z,12.14
2023-03-17T14:38:32.174Z,12.43
2023-03-17T14:41:06.797Z,12.17
2023-03-17T14:43:36.947Z,12.39
2023-03-17T14:46:06.817Z,11.96
2023-03-17T14:48:37.194Z,11.99
2023-03-17T14:51:09.779Z,12.21
2023-03-17T14:53:43.271Z,11.99
2023-03-17T14:56:13.672Z,11.88
2023-03-17T14:58:44.238Z,12.01
2023-03-17T15:01:17.661Z,12.44
2023-03-17T15:03:56.580Z,11.95
2023-03-17T15:06:27.258Z,12.30
2023-03-17T15:08:56.022Z,12.45
2023-03-17T15:11:28.412Z,12.58
2023-03-17T15:14:05.074Z,12.43
2023-03-17T15:16:36.768Z,11.41
2023-03-17T15:19:08.712Z,12.04
2023-03-17T15:21:41.293Z,11.44
2023-03-17T15:24:29.726Z,11.10
2023-03-17T15:27:04.919Z,10.68
2023-03-17T15:29:33.281Z,11.38
2023-03-17T15:32:13.844Z,11.25
2023-03-17T15:34:42.682Z,11.32
2023-03-17T15:37:19.429Z,11.06
2023-03-17T15:39:48.204Z,11.45
2023-03-17T15:42:21.939Z,11.22
2023-03-17T15:44:50.297Z,11.90
2023-03-17T15:47:21.042Z,12.02
2023-03-17T15:49:50.860Z,11.98
2023-03-17T15:52:23.119Z,11.16
2023-03-17T15:54:51.593Z,11.51
2023-03-17T15:57:21.400Z,11.63
2023-03-17T15:59:49.684Z,11.42
2023-03-17T16:02:29.144Z,11.22
2023-03-17T16:04:58.498Z,11.14
2023-03-17T16:07:27.381Z,11.42
2023-03-17T16:09:55.984Z,11.21
2023-03-17T16:12:26.166Z,11.41
2023-03-17T16:14:54.440Z,11.59
2023-03-17T16:17:29.137Z,11.46
2023-03-17T16:19:58.253Z,11.43
2023-03-17T16:22:39.575Z,11.01
2023-03-17T16:25:19.972Z,11.11
2023-03-17T16:27:50.506Z,11.20
2023-03-17T16:30:21.486Z,10.92
2023-03-17T16:32:50.301Z,10.92
2023-03-17T16:35:20.646Z,10.25
2023-03-17T16:37:49.309Z,10.65
2023-03-17T16:40:20.290Z,10.51
2023-03-17T16:42:50.560Z,10.60
2023-03-17T16:45:23.459Z,10.48
2023-03-17T16:47:51.704Z,10.82
2023-03-17T16:50:21.909Z,11.04
2023-03-17T16:52:50.393Z,11.12
2023-03-17T16:55:20.694Z,11.29
2023-03-17T16:57:53.551Z,11.36
2023-03-17T17:00:25.000Z,11.34
2023-03-17T17:02:54.089Z,11.56
2023-03-17T17:05:24.855Z,11.92
2023-03-17T17:07:56.160Z,12.08
2023-03-17T17:10:26.918Z,11.62
2023-03-17T17:12:56.860Z,10.14
2023-03-17T17:15:25.453Z,11.11
2023-03-17T17:17:59.178Z,11.28
2023-03-17T17:20:30.936Z,11.25
2023-03-17T17:23:00.495Z,11.37
2023-03-17T17:25:29.558Z,11.19
2023-03-17T17:27:59.922Z,11.01
2023-03-17T17:30:31.514Z,11.24
2023-03-17T17:33:01.582Z,10.36
2023-03-17T17:35:33.156Z,11.27
2023-03-17T17:38:02.738Z,11.04
2023-03-17T17:40:31.656Z,11.48
2023-03-17T17:43:02.340Z,11.04
2023-03-17T17:45:30.799Z,11.15
2023-03-17T17:47:59.155Z,11.04
2023-03-17T17:50:29.881Z,10.90
2023-03-17T17:53:04.998Z,11.20
2023-03-17T17:55:34.678Z,11.34
2023-03-17T17:58:04.756Z,11.15
2023-03-17T18:00:33.709Z,11.67
2023-03-17T18:03:02.570Z,11.66
2023-03-17T18:05:32.331Z,11.28
2023-03-17T18:08:02.526Z,11.55
2023-03-17T18:10:32.098Z,11.60
2023-03-17T18:15:48.332Z,11.04
2023-03-17T18:18:16.720Z,11.13
2023-03-17T18:20:45.083Z,11.27
2023-03-17T18:23:13.465Z,11.53
2023-03-17T18:25:41.793Z,11.40
2023-03-17T18:28:10.098Z,11.20
2023-03-17T18:30:38.837Z,11.29
2023-03-17T18:33:12.105Z,11.49
2023-03-17T18:35:41.325Z,11.38
2023-03-17T18:38:09.661Z,11.06
2023-03-17T18:40:38.053Z,10.87
2023-03-17T18:43:06.721Z,11.13
2023-03-17T18:45:35.104Z,10.96
2023-03-17T18:48:03.532Z,10.91
2023-03-17T18:50:33.596Z,10.84
2023-03-17T18:53:02.667Z,10.91
2023-03-17T18:55:34.739Z,11.13
2023-03-17T18:58:03.267Z,10.57
2023-03-17T19:00:31.885Z,10.95
2023-03-17T19:03:00.374Z,11.14
2023-03-17T19:05:28.836Z,11.31
2023-03-17T19:07:58.589Z,11.26
2023-03-17T19:10:26.875Z,11.43
2023-03-17T19:12:55.550Z,11.25
2023-03-17T19:15:23.903Z,11.22
2023-03-17T19:17:52.286Z,10.98
2023-03-17T19:20:20.839Z,11.20
2023-03-17T19:22:49.220Z,10.78
2023-03-17T19:25:19.117Z,10.56
2023-03-17T19:27:47.473Z,11.25
2023-03-17T19:30:16.306Z,11.23
2023-03-17T19:32:45.013Z,11.38
2023-03-17T19:35:13.329Z,11.31
2023-03-17T19:37:41.643Z,11.26
2023-03-17T19:40:11.425Z,11.40
2023-03-17T19:42:41.589Z,11.18
2023-03-17T19:45:10.886Z,11.51
2023-03-17T19:47:39.428Z,11.19
2023-03-17T19:50:09.040Z,10.87
2023-03-17T19:52:37.374Z,11.22
2023-03-17T19:55:08.306Z,11.27
2023-03-17T19:57:36.852Z,11.10
2023-03-17T20:00:09.044Z,11.15
2023-03-17T20:02:37.512Z,11.22
2023-03-17T20:05:06.760Z,11.02
2023-03-17T20:07:35.628Z,10.92
2023-03-17T20:10:04.161Z,10.64
2023-03-17T20:12:33.005Z,10.28
2023-03-17T20:15:01.783Z,10.68
2023-03-17T20:17:31.536Z,10.53
2023-03-17T20:20:00.451Z,10.53
2023-03-17T20:22:29.018Z,10.89
2023-03-17T20:24:57.364Z,10.40
2023-03-17T20:27:25.652Z,10.17
2023-03-17T20:29:53.964Z,10.30
2023-03-17T20:32:22.305Z,10.02
2023-03-17T20:34:52.067Z,10.38
2023-03-17T20:37:20.407Z,10.59
2023-03-17T20:39:48.742Z,10.70
2023-03-17T20:42:20.160Z,10.69
2023-03-17T20:44:52.953Z,10.79
2023-03-17T20:47:21.637Z,10.88
2023-03-17T20:49:51.291Z,10.87
2023-03-17T20:52:20.004Z,10.82
2023-03-17T20:54:48.751Z,10.79
2023-03-17T20:57:17.223Z,10.84
2023-03-17T20:59:45.723Z,10.79
2023-03-17T21:02:18.444Z,10.85
2023-03-17T21:04:49.059Z,10.75
2023-03-17T21:07:20.121Z,10.69
2023-03-17T21:09:48.959Z,10.33
2023-03-17T21:12:19.670Z,10.65
2023-03-17T21:14:49.306Z,10.69
2023-03-17T21:17:18.604Z,9.79
2023-03-17T21:19:47.538Z,10.48
2023-03-17T21:22:16.168Z,10.52
2023-03-17T21:24:45.938Z,10.59
2023-03-17T21:27:14.319Z,9.53
2023-03-17T21:29:42.747Z,9.41
2023-03-17T21:32:11.202Z,10.22
2023-03-17T21:34:39.399Z,10.27
2023-03-17T21:37:08.066Z,9.63
2023-03-17T21:39:36.923Z,10.22
2023-03-17T21:42:09.108Z,10.32
2023-03-17T21:44:37.425Z,10.31
2023-03-17T21:47:06.261Z,10.32
2023-03-17T21:49:34.579Z,10.31
2023-03-17T21:52:02.776Z,10.34
2023-03-17T21:54:31.708Z,10.12
2023-03-17T21:56:59.969Z,10.37
2023-03-17T21:59:31.954Z,10.24
2023-03-17T22:02:00.276Z,10.29
2023-03-17T22:04:30.054Z,10.20
2023-03-17T22:06:59.042Z,10.22
2023-03-17T22:09:27.883Z,10.06
2023-03-17T22:11:56.194Z,10.09
2023-03-17T22:14:24.503Z,10.13
2023-03-17T22:16:54.490Z,10.13
2023-03-17T22:19:22.771Z,10.03
2023-03-17T22:21:51.821Z,10.06
2023-03-17T22:24:20.614Z,9.97
2023-03-17T22:26:49.758Z,9.70
2023-03-17T22:29:18.118Z,9.77
2023-03-17T22:31:47.076Z,10.00
2023-03-17T22:34:17.494Z,10.06
2023-03-17T22:36:45.680Z,10.05
2023-03-17T22:39:14.370Z,9.82
2023-03-17T22:41:43.027Z,10.02
2023-03-17T22:44:12.397Z,10.12
2023-03-17T22:46:41.695Z,10.10
2023-03-17T22:49:10.203Z,10.08
2023-03-17T22:51:41.463Z,10.10
2023-03-17T22:54:11.425Z,10.18
2023-03-17T22:56:40.033Z,10.04
2023-03-17T22:59:08.378Z,9.93
2023-03-17T23:01:36.776Z,10.05
2023-03-17T23:04:05.124Z,10.12
2023-03-17T23:06:33.550Z,10.09
2023-03-17T23:09:04.935Z,9.99
2023-03-17T23:11:33.555Z,10.11
2023-03-17T23:14:02.052Z,9.84
2023-03-17T23:16:30.544Z,9.87
2023-03-17T23:18:59.033Z,9.90
2023-03-17T23:21:31.032Z,9.48
2023-03-17T23:23:59.425Z,9.93
2023-03-17T23:26:30.194Z,9.60
2023-03-17T23:28:58.496Z,9.68
2023-03-17T23:31:27.559Z,9.44
2023-03-17T23:33:55.862Z,9.75
2023-03-17T23:36:24.146Z,9.79
2023-03-17T23:38:52.682Z,9.89
2023-03-17T23:41:21.365Z,9.68
2023-03-17T23:43:51.212Z,9.64
2023-03-17T23:46:20.741Z,9.78
2023-03-17T23:48:50.180Z,9.32
2023-03-17T23:51:18.453Z,9.57
2023-03-17T23:53:48.106Z,9.69
2023-03-17T23:56:16.587Z,9.72
2023-03-17T23:58:44.868Z,9.74
